Terminal Aerodrome Forecast
Issued by NWS

Home | Current Version | Previous Version | Graphics & Text | Print | Product List | Glossary On
Versions: 1 2 3 4 5 6 7 8 9 10 11 12 13 14
000
FTUS43 KGRB 111700
TAFAUW
TAF
KAUW 111737Z 1118/1218 20015G20KT P6SM VCSH SCT045 OVC090
     FM120600 20003KT 5SM BR SCT012 BKN025
     FM121000 23003KT 4SM BR VCSH SCT008 OVC012 PROB30 1215/1218 3SM
      TSRA BR OVC010CB=

USA.gov is the U.S. government's official web portal to all federal, state and local government web resources and services.